Houston, Texas
Traffic Map
Current Weather Conditions
Houston, Texas
Clear
Clear
81°
Feels Like: 85°
Wind Chill: 81° Ceiling: Unl
Heat Index: 85° Visibility: 10mi
Dew Point: 73° Wind: 0mph
Humidity: 79% Direction: ° ()
Pressure: 29.95in Gusts: 0mph
Raw Report DataKMCJ 310735Z AUTO 00000KT 10SM CLR 27/23 A2995 RMK AO1
Traffic Incident Summary
Active as of:
Severity:
Category:
InformationThere was an issue retrieving the traffic information for this location. Please try a different location or try again shortly.
Advertisements
Track Severe Weather on mobile